sensor_id;sensor_type;location;lat;lon;timestamp;temperature;humidity
29571;DHT22;16814;52.118;11.436;2022-10-16T00:01:59;15.40;99.90
29571;DHT22;16814;52.118;11.436;2022-10-16T00:04:24;15.40;99.90
29571;DHT22;16814;52.118;11.436;2022-10-16T00:06:50;15.40;99.90
29571;DHT22;16814;52.118;11.436;2022-10-16T00:09:16;15.20;99.90
29571;DHT22;16814;52.118;11.436;2022-10-16T00:11:41;15.20;99.90
29571;DHT22;16814;52.118;11.436;2022-10-16T00:14:11;15.10;99.90
29571;DHT22;16814;52.118;11.436;2022-10-16T00:16:37;15.10;99.90
29571;DHT22;16814;52.118;11.436;2022-10-16T00:19:03;15.10;99.90
29571;DHT22;16814;52.118;11.436;2022-10-16T00:21:30;14.80;99.90
29571;DHT22;16814;52.118;11.436;2022-10-16T00:24:01;15.00;99.90
29571;DHT22;16814;52.118;11.436;2022-10-16T00:26:28;15.00;99.90
29571;DHT22;16814;52.118;11.436;2022-10-16T00:28:54;14.80;99.90
29571;DHT22;16814;52.118;11.436;2022-10-16T00:31:22;14.40;99.90
29571;DHT22;16814;52.118;11.436;2022-10-16T00:33:48;13.90;99.90
29571;DHT22;16814;52.118;11.436;2022-10-16T00:36:16;13.70;99.90
29571;DHT22;16814;52.118;11.436;2022-10-16T00:38:42;13.50;99.90
29571;DHT22;16814;52.118;11.436;2022-10-16T00:41:11;13.40;99.90
29571;DHT22;16814;52.118;11.436;2022-10-16T00:43:43;13.30;99.90
29571;DHT22;16814;52.118;11.436;2022-10-16T00:46:28;13.30;99.90
29571;DHT22;16814;52.118;11.436;2022-10-16T00:51:43;13.50;99.90
29571;DHT22;16814;52.118;11.436;2022-10-16T00:54:19;13.60;99.90
29571;DHT22;16814;52.118;11.436;2022-10-16T00:56:46;13.90;99.90
29571;DHT22;16814;52.118;11.436;2022-10-16T00:59:16;13.80;99.90
29571;DHT22;16814;52.118;11.436;2022-10-16T01:01:43;14.00;99.90
29571;DHT22;16814;52.118;11.436;2022-10-16T01:04:08;14.00;99.90
29571;DHT22;16814;52.118;11.436;2022-10-16T01:06:54;14.10;99.90
29571;DHT22;16814;52.118;11.436;2022-10-16T01:09:54;14.10;99.90
29571;DHT22;16814;52.118;11.436;2022-10-16T01:12:49;14.20;99.90
29571;DHT22;16814;52.118;11.436;2022-10-16T01:15:25;14.10;99.90
29571;DHT22;16814;52.118;11.436;2022-10-16T01:18:01;14.10;99.90
29571;DHT22;16814;52.118;11.436;2022-10-16T01:20:34;13.90;99.90
29571;DHT22;16814;52.118;11.436;2022-10-16T01:28:19;13.80;99.90
29571;DHT22;16814;52.118;11.436;2022-10-16T01:30:47;13.80;99.90
29571;DHT22;16814;52.118;11.436;2022-10-16T01:33:24;13.80;99.90
29571;DHT22;16814;52.118;11.436;2022-10-16T01:35:58;13.80;99.90
29571;DHT22;16814;52.118;11.436;2022-10-16T01:38:35;13.80;99.90
29571;DHT22;16814;52.118;11.436;2022-10-16T01:41:15;13.90;99.90
29571;DHT22;16814;52.118;11.436;2022-10-16T01:43:46;13.80;99.90
29571;DHT22;16814;52.118;11.436;2022-10-16T01:46:13;13.70;99.90
29571;DHT22;16814;52.118;11.436;2022-10-16T01:48:39;13.70;99.90
29571;DHT22;16814;52.118;11.436;2022-10-16T01:51:12;13.50;99.90
29571;DHT22;16814;52.118;11.436;2022-10-16T01:53:40;13.40;99.90
29571;DHT22;16814;52.118;11.436;2022-10-16T01:56:09;13.40;99.90
29571;DHT22;16814;52.118;11.436;2022-10-16T01:58:45;13.50;99.90
29571;DHT22;16814;52.118;11.436;2022-10-16T02:01:13;13.60;99.90
29571;DHT22;16814;52.118;11.436;2022-10-16T02:03:42;13.50;99.90
29571;DHT22;16814;52.118;11.436;2022-10-16T02:06:08;13.30;99.90
29571;DHT22;16814;52.118;11.436;2022-10-16T02:08:35;13.30;99.90
29571;DHT22;16814;52.118;11.436;2022-10-16T02:11:01;13.00;99.90
29571;DHT22;16814;52.118;11.436;2022-10-16T02:13:32;12.90;99.90
29571;DHT22;16814;52.118;11.436;2022-10-16T02:15:59;12.90;99.90
29571;DHT22;16814;52.118;11.436;2022-10-16T02:18:25;12.90;99.90
29571;DHT22;16814;52.118;11.436;2022-10-16T02:21:21;12.90;99.90
29571;DHT22;16814;52.118;11.436;2022-10-16T02:26:32;13.10;99.90
29571;DHT22;16814;52.118;11.436;2022-10-16T02:29:06;13.20;99.90
29571;DHT22;16814;52.118;11.436;2022-10-16T02:31:35;13.20;99.90
29571;DHT22;16814;52.118;11.436;2022-10-16T02:34:02;13.40;99.90
29571;DHT22;16814;52.118;11.436;2022-10-16T02:36:30;13.50;99.90
29571;DHT22;16814;52.118;11.436;2022-10-16T02:38:57;13.70;99.90
29571;DHT22;16814;52.118;11.436;2022-10-16T02:41:24;13.60;99.90
29571;DHT22;16814;52.118;11.436;2022-10-16T02:43:50;13.70;99.90
29571;DHT22;16814;52.118;11.436;2022-10-16T02:46:16;13.70;99.90
29571;DHT22;16814;52.118;11.436;2022-10-16T02:48:42;13.90;99.90
29571;DHT22;16814;52.118;11.436;2022-10-16T02:51:08;13.70;99.90
29571;DHT22;16814;52.118;11.436;2022-10-16T02:53:33;13.60;99.90
29571;DHT22;16814;52.118;11.436;2022-10-16T02:55:59;13.60;99.90
29571;DHT22;16814;52.118;11.436;2022-10-16T02:58:24;13.70;99.90
29571;DHT22;16814;52.118;11.436;2022-10-16T03:00:50;13.80;99.90
29571;DHT22;16814;52.118;11.436;2022-10-16T03:03:15;13.80;99.90
29571;DHT22;16814;52.118;11.436;2022-10-16T03:05:43;13.70;99.90
29571;DHT22;16814;52.118;11.436;2022-10-16T03:08:08;13.50;99.90
29571;DHT22;16814;52.118;11.436;2022-10-16T03:10:34;13.30;99.90
29571;DHT22;16814;52.118;11.436;2022-10-16T03:12:59;13.30;99.90
29571;DHT22;16814;52.118;11.436;2022-10-16T03:15:25;13.20;99.90
29571;DHT22;16814;52.118;11.436;2022-10-16T03:17:51;13.30;99.90
29571;DHT22;16814;52.118;11.436;2022-10-16T03:20:16;13.70;99.90
29571;DHT22;16814;52.118;11.436;2022-10-16T03:22:42;13.70;99.90
29571;DHT22;16814;52.118;11.436;2022-10-16T03:25:08;13.60;99.90
29571;DHT22;16814;52.118;11.436;2022-10-16T03:27:33;13.70;99.90
29571;DHT22;16814;52.118;11.436;2022-10-16T03:29:59;13.60;99.90
29571;DHT22;16814;52.118;11.436;2022-10-16T03:32:24;13.70;99.90
29571;DHT22;16814;52.118;11.436;2022-10-16T03:34:50;13.80;99.90
29571;DHT22;16814;52.118;11.436;2022-10-16T03:37:16;13.90;99.90
29571;DHT22;16814;52.118;11.436;2022-10-16T03:39:41;13.80;99.90
29571;DHT22;16814;52.118;11.436;2022-10-16T03:42:07;13.90;99.90
29571;DHT22;16814;52.118;11.436;2022-10-16T03:44:32;13.80;99.90
29571;DHT22;16814;52.118;11.436;2022-10-16T03:46:58;13.80;99.90
29571;DHT22;16814;52.118;11.436;2022-10-16T03:49:23;13.70;99.90
29571;DHT22;16814;52.118;11.436;2022-10-16T03:51:49;13.70;99.90
29571;DHT22;16814;52.118;11.436;2022-10-16T03:54:14;13.70;99.90
29571;DHT22;16814;52.118;11.436;2022-10-16T03:56:40;13.60;99.90
29571;DHT22;16814;52.118;11.436;2022-10-16T03:59:05;13.60;99.90
29571;DHT22;16814;52.118;11.436;2022-10-16T04:01:31;13.50;99.90
29571;DHT22;16814;52.118;11.436;2022-10-16T04:03:56;13.50;99.90
29571;DHT22;16814;52.118;11.436;2022-10-16T04:06:21;13.60;99.90
29571;DHT22;16814;52.118;11.436;2022-10-16T04:08:47;13.70;99.90
29571;DHT22;16814;52.118;11.436;2022-10-16T04:11:12;13.60;99.90
29571;DHT22;16814;52.118;11.436;2022-10-16T04:13:38;13.50;99.90
29571;DHT22;16814;52.118;11.436;2022-10-16T04:16:04;13.50;99.90
29571;DHT22;16814;52.118;11.436;2022-10-16T04:18:29;13.40;99.90
29571;DHT22;16814;52.118;11.436;2022-10-16T04:20:55;13.50;99.90
29571;DHT22;16814;52.118;11.436;2022-10-16T04:23:21;13.70;99.90
29571;DHT22;16814;52.118;11.436;2022-10-16T04:25:48;13.80;99.90
29571;DHT22;16814;52.118;11.436;2022-10-16T04:28:13;13.80;99.90
29571;DHT22;16814;52.118;11.436;2022-10-16T04:30:39;13.60;99.90
29571;DHT22;16814;52.118;11.436;2022-10-16T04:33:04;13.30;99.90
29571;DHT22;16814;52.118;11.436;2022-10-16T04:35:30;13.30;99.90
29571;DHT22;16814;52.118;11.436;2022-10-16T04:37:57;13.20;99.90
29571;DHT22;16814;52.118;11.436;2022-10-16T04:40:23;13.10;99.90
29571;DHT22;16814;52.118;11.436;2022-10-16T04:42:49;13.10;99.90
29571;DHT22;16814;52.118;11.436;2022-10-16T04:45:14;13.10;99.90
29571;DHT22;16814;52.118;11.436;2022-10-16T04:47:40;13.10;99.90
29571;DHT22;16814;52.118;11.436;2022-10-16T04:50:06;13.30;99.90
29571;DHT22;16814;52.118;11.436;2022-10-16T04:52:32;13.20;99.90
29571;DHT22;16814;52.118;11.436;2022-10-16T04:54:58;13.00;99.90
29571;DHT22;16814;52.118;11.436;2022-10-16T04:57:27;12.90;99.90
29571;DHT22;16814;52.118;11.436;2022-10-16T04:59:52;12.70;99.90
29571;DHT22;16814;52.118;11.436;2022-10-16T05:02:18;12.50;99.90
29571;DHT22;16814;52.118;11.436;2022-10-16T05:04:43;12.60;99.90
29571;DHT22;16814;52.118;11.436;2022-10-16T05:07:09;12.80;99.90
29571;DHT22;16814;52.118;11.436;2022-10-16T05:09:34;12.80;99.90
29571;DHT22;16814;52.118;11.436;2022-10-16T05:12:00;12.70;99.90
29571;DHT22;16814;52.118;11.436;2022-10-16T05:14:25;12.90;99.90
29571;DHT22;16814;52.118;11.436;2022-10-16T05:16:51;12.80;99.90
29571;DHT22;16814;52.118;11.436;2022-10-16T05:19:17;12.90;99.90
29571;DHT22;16814;52.118;11.436;2022-10-16T05:21:42;13.00;99.90
29571;DHT22;16814;52.118;11.436;2022-10-16T05:24:08;13.10;99.90
29571;DHT22;16814;52.118;11.436;2022-10-16T05:26:34;13.10;99.90
29571;DHT22;16814;52.118;11.436;2022-10-16T05:29:00;13.20;99.90
29571;DHT22;16814;52.118;11.436;2022-10-16T05:31:25;13.20;99.90
29571;DHT22;16814;52.118;11.436;2022-10-16T05:33:51;13.30;99.90
29571;DHT22;16814;52.118;11.436;2022-10-16T05:36:18;13.40;99.90
29571;DHT22;16814;52.118;11.436;2022-10-16T05:38:52;13.30;99.90
29571;DHT22;16814;52.118;11.436;2022-10-16T05:41:18;13.30;99.90
29571;DHT22;16814;52.118;11.436;2022-10-16T05:43:47;13.30;99.90
29571;DHT22;16814;52.118;11.436;2022-10-16T05:46:13;13.40;99.90
29571;DHT22;16814;52.118;11.436;2022-10-16T05:48:38;13.50;99.90
29571;DHT22;16814;52.118;11.436;2022-10-16T05:51:06;13.50;99.90
29571;DHT22;16814;52.118;11.436;2022-10-16T05:53:34;13.50;99.90
29571;DHT22;16814;52.118;11.436;2022-10-16T05:56:01;13.40;99.90
29571;DHT22;16814;52.118;11.436;2022-10-16T05:58:32;13.40;99.90
29571;DHT22;16814;52.118;11.436;2022-10-16T06:01:00;13.40;99.90
29571;DHT22;16814;52.118;11.436;2022-10-16T06:03:26;13.40;99.90
29571;DHT22;16814;52.118;11.436;2022-10-16T06:05:52;13.40;99.90
29571;DHT22;16814;52.118;11.436;2022-10-16T06:08:19;13.30;99.90
29571;DHT22;16814;52.118;11.436;2022-10-16T06:10:45;13.30;99.90
29571;DHT22;16814;52.118;11.436;2022-10-16T06:13:12;13.30;99.90
29571;DHT22;16814;52.118;11.436;2022-10-16T06:15:38;13.40;99.90
29571;DHT22;16814;52.118;11.436;2022-10-16T06:18:04;13.50;99.90
29571;DHT22;16814;52.118;11.436;2022-10-16T06:20:30;13.50;99.90
29571;DHT22;16814;52.118;11.436;2022-10-16T06:22:56;13.60;99.90
29571;DHT22;16814;52.118;11.436;2022-10-16T06:25:22;13.80;99.90
29571;DHT22;16814;52.118;11.436;2022-10-16T06:27:47;13.60;99.90
29571;DHT22;16814;52.118;11.436;2022-10-16T06:30:13;13.60;99.90
29571;DHT22;16814;52.118;11.436;2022-10-16T06:32:38;13.60;99.90
29571;DHT22;16814;52.118;11.436;2022-10-16T06:35:04;13.90;99.90
29571;DHT22;16814;52.118;11.436;2022-10-16T06:37:29;13.80;99.90
29571;DHT22;16814;52.118;11.436;2022-10-16T06:39:55;13.70;99.90
29571;DHT22;16814;52.118;11.436;2022-10-16T06:42:21;13.70;99.90
29571;DHT22;16814;52.118;11.436;2022-10-16T06:44:46;13.60;99.90
29571;DHT22;16814;52.118;11.436;2022-10-16T06:47:12;13.70;99.90
29571;DHT22;16814;52.118;11.436;2022-10-16T06:49:37;13.70;99.90
29571;DHT22;16814;52.118;11.436;2022-10-16T06:52:03;13.70;99.90
29571;DHT22;16814;52.118;11.436;2022-10-16T06:54:28;13.70;99.90
29571;DHT22;16814;52.118;11.436;2022-10-16T06:56:54;13.70;99.90
29571;DHT22;16814;52.118;11.436;2022-10-16T06:59:23;13.70;99.90
29571;DHT22;16814;52.118;11.436;2022-10-16T07:01:48;13.80;99.90
29571;DHT22;16814;52.118;11.436;2022-10-16T07:04:14;13.80;99.90
29571;DHT22;16814;52.118;11.436;2022-10-16T07:06:40;13.80;99.90
29571;DHT22;16814;52.118;11.436;2022-10-16T07:09:08;13.90;99.90
29571;DHT22;16814;52.118;11.436;2022-10-16T07:11:34;13.90;99.90
29571;DHT22;16814;52.118;11.436;2022-10-16T07:14:01;13.90;99.90
29571;DHT22;16814;52.118;11.436;2022-10-16T07:16:28;14.00;99.90
29571;DHT22;16814;52.118;11.436;2022-10-16T07:18:56;14.00;99.90
29571;DHT22;16814;52.118;11.436;2022-10-16T07:21:26;14.20;99.90
29571;DHT22;16814;52.118;11.436;2022-10-16T07:23:55;14.30;99.90
29571;DHT22;16814;52.118;11.436;2022-10-16T07:26:22;14.50;99.90
29571;DHT22;16814;52.118;11.436;2022-10-16T07:28:47;14.50;99.90
29571;DHT22;16814;52.118;11.436;2022-10-16T07:31:14;14.50;99.90
29571;DHT22;16814;52.118;11.436;2022-10-16T07:33:41;14.50;99.90
29571;DHT22;16814;52.118;11.436;2022-10-16T07:36:08;15.10;99.90
29571;DHT22;16814;52.118;11.436;2022-10-16T07:38:34;14.60;99.90
29571;DHT22;16814;52.118;11.436;2022-10-16T07:41:04;14.50;99.90
29571;DHT22;16814;52.118;11.436;2022-10-16T07:43:31;14.50;99.90
29571;DHT22;16814;52.118;11.436;2022-10-16T07:45:57;14.50;99.90
29571;DHT22;16814;52.118;11.436;2022-10-16T07:48:23;14.50;99.90
29571;DHT22;16814;52.118;11.436;2022-10-16T07:50:49;14.70;99.90
29571;DHT22;16814;52.118;11.436;2022-10-16T07:53:15;14.90;99.90
29571;DHT22;16814;52.118;11.436;2022-10-16T07:55:41;15.00;99.90
29571;DHT22;16814;52.118;11.436;2022-10-16T07:58:07;15.20;99.90
29571;DHT22;16814;52.118;11.436;2022-10-16T08:00:33;15.10;99.90
29571;DHT22;16814;52.118;11.436;2022-10-16T08:02:58;15.10;99.90
29571;DHT22;16814;52.118;11.436;2022-10-16T08:05:28;15.20;99.90
29571;DHT22;16814;52.118;11.436;2022-10-16T08:07:55;15.20;99.90
29571;DHT22;16814;52.118;11.436;2022-10-16T08:10:23;15.20;99.90
29571;DHT22;16814;52.118;11.436;2022-10-16T08:12:49;15.20;99.90
29571;DHT22;16814;52.118;11.436;2022-10-16T08:15:14;15.10;99.90
29571;DHT22;16814;52.118;11.436;2022-10-16T08:17:40;15.10;99.90
29571;DHT22;16814;52.118;11.436;2022-10-16T08:20:06;15.20;99.90
29571;DHT22;16814;52.118;11.436;2022-10-16T08:22:32;15.30;99.90
29571;DHT22;16814;52.118;11.436;2022-10-16T08:24:57;15.50;99.90
29571;DHT22;16814;52.118;11.436;2022-10-16T08:27:23;15.70;99.90
29571;DHT22;16814;52.118;11.436;2022-10-16T08:29:48;15.80;99.90
29571;DHT22;16814;52.118;11.436;2022-10-16T08:32:14;16.10;99.90
29571;DHT22;16814;52.118;11.436;2022-10-16T08:34:40;16.20;99.90
29571;DHT22;16814;52.118;11.436;2022-10-16T08:37:05;16.70;99.90
29571;DHT22;16814;52.118;11.436;2022-10-16T08:39:33;16.90;99.90
29571;DHT22;16814;52.118;11.436;2022-10-16T08:45:13;17.20;99.90
29571;DHT22;16814;52.118;11.436;2022-10-16T08:50:38;17.40;99.90
29571;DHT22;16814;52.118;11.436;2022-10-16T08:53:05;17.40;99.90
29571;DHT22;16814;52.118;11.436;2022-10-16T08:55:42;17.50;99.90
29571;DHT22;16814;52.118;11.436;2022-10-16T08:58:15;17.50;99.90
29571;DHT22;16814;52.118;11.436;2022-10-16T09:00:42;17.50;99.90
29571;DHT22;16814;52.118;11.436;2022-10-16T09:06:16;17.60;99.90
29571;DHT22;16814;52.118;11.436;2022-10-16T09:12:19;17.50;99.90
29571;DHT22;16814;52.118;11.436;2022-10-16T09:17:57;17.30;99.90
29571;DHT22;16814;52.118;11.436;2022-10-16T09:23:22;17.30;99.90
29571;DHT22;16814;52.118;11.436;2022-10-16T09:25:50;17.40;99.90
29571;DHT22;16814;52.118;11.436;2022-10-16T09:28:17;17.40;99.90
29571;DHT22;16814;52.118;11.436;2022-10-16T09:30:44;17.50;99.90
29571;DHT22;16814;52.118;11.436;2022-10-16T09:33:11;17.50;99.90
29571;DHT22;16814;52.118;11.436;2022-10-16T09:35:40;17.40;99.90
29571;DHT22;16814;52.118;11.436;2022-10-16T09:38:07;17.50;99.90
29571;DHT22;16814;52.118;11.436;2022-10-16T09:40:34;17.30;99.90
29571;DHT22;16814;52.118;11.436;2022-10-16T09:43:41;17.40;99.90
29571;DHT22;16814;52.118;11.436;2022-10-16T09:48:49;17.90;99.90
29571;DHT22;16814;52.118;11.436;2022-10-16T09:51:36;18.00;99.90
29571;DHT22;16814;52.118;11.436;2022-10-16T09:54:15;18.20;99.90
29571;DHT22;16814;52.118;11.436;2022-10-16T09:56:40;18.40;99.90
29571;DHT22;16814;52.118;11.436;2022-10-16T09:59:21;18.60;99.90
29571;DHT22;16814;52.118;11.436;2022-10-16T10:01:53;18.70;99.90
29571;DHT22;16814;52.118;11.436;2022-10-16T10:04:22;18.90;99.90
29571;DHT22;16814;52.118;11.436;2022-10-16T10:06:52;19.10;99.90
29571;DHT22;16814;52.118;11.436;2022-10-16T10:09:23;19.20;99.90
29571;DHT22;16814;52.118;11.436;2022-10-16T10:11:59;19.20;99.90
29571;DHT22;16814;52.118;11.436;2022-10-16T10:14:35;19.00;99.90
29571;DHT22;16814;52.118;11.436;2022-10-16T10:17:10;18.90;99.90
29571;DHT22;16814;52.118;11.436;2022-10-16T10:20:14;18.80;99.90
29571;DHT22;16814;52.118;11.436;2022-10-16T10:22:40;18.60;99.90
29571;DHT22;16814;52.118;11.436;2022-10-16T10:27:47;18.60;99.90
29571;DHT22;16814;52.118;11.436;2022-10-16T10:30:32;18.60;99.90
29571;DHT22;16814;52.118;11.436;2022-10-16T10:38:51;18.80;99.90
29571;DHT22;16814;52.118;11.436;2022-10-16T10:41:33;18.90;99.90
29571;DHT22;16814;52.118;11.436;2022-10-16T10:44:19;18.90;99.90
29571;DHT22;16814;52.118;11.436;2022-10-16T10:52:50;19.00;99.90
29571;DHT22;16814;52.118;11.436;2022-10-16T10:58:35;18.70;99.90
29571;DHT22;16814;52.118;11.436;2022-10-16T11:01:21;18.70;99.90
29571;DHT22;16814;52.118;11.436;2022-10-16T11:06:39;18.90;99.90
29571;DHT22;16814;52.118;11.436;2022-10-16T11:09:15;18.90;99.90
29571;DHT22;16814;52.118;11.436;2022-10-16T11:12:06;18.90;99.90
29571;DHT22;16814;52.118;11.436;2022-10-16T11:14:38;19.10;99.90
29571;DHT22;16814;52.118;11.436;2022-10-16T11:17:11;19.20;99.90
29571;DHT22;16814;52.118;11.436;2022-10-16T11:19:53;19.10;99.90
29571;DHT22;16814;52.118;11.436;2022-10-16T11:22:33;19.00;99.90
29571;DHT22;16814;52.118;11.436;2022-10-16T11:25:26;19.10;99.90
29571;DHT22;16814;52.118;11.436;2022-10-16T11:30:28;19.20;99.90
29571;DHT22;16814;52.118;11.436;2022-10-16T11:33:22;19.20;99.90
29571;DHT22;16814;52.118;11.436;2022-10-16T11:35:57;19.10;99.90
29571;DHT22;16814;52.118;11.436;2022-10-16T11:44:33;19.00;99.90
29571;DHT22;16814;52.118;11.436;2022-10-16T11:52:42;19.10;99.90
29571;DHT22;16814;52.118;11.436;2022-10-16T11:55:20;19.00;99.90
29571;DHT22;16814;52.118;11.436;2022-10-16T11:57:53;18.70;99.90
29571;DHT22;16814;52.118;11.436;2022-10-16T12:00:30;18.70;99.90
29571;DHT22;16814;52.118;11.436;2022-10-16T12:03:12;18.60;99.90
29571;DHT22;16814;52.118;11.436;2022-10-16T12:08:37;18.80;99.90
29571;DHT22;16814;52.118;11.436;2022-10-16T12:11:08;18.90;99.90
29571;DHT22;16814;52.118;11.436;2022-10-16T12:13:36;18.80;99.90
29571;DHT22;16814;52.118;11.436;2022-10-16T12:18:43;18.70;99.90
29571;DHT22;16814;52.118;11.436;2022-10-16T12:21:09;18.80;99.90
29571;DHT22;16814;52.118;11.436;2022-10-16T12:23:52;18.80;99.90
29571;DHT22;16814;52.118;11.436;2022-10-16T12:26:27;18.80;99.90
29571;DHT22;16814;52.118;11.436;2022-10-16T12:28:54;18.80;99.90
29571;DHT22;16814;52.118;11.436;2022-10-16T12:31:20;18.90;99.90
29571;DHT22;16814;52.118;11.436;2022-10-16T12:37:19;19.00;99.90
29571;DHT22;16814;52.118;11.436;2022-10-16T12:39:47;18.90;99.90
29571;DHT22;16814;52.118;11.436;2022-10-16T12:42:32;19.00;99.90
29571;DHT22;16814;52.118;11.436;2022-10-16T12:44:59;19.20;99.90
29571;DHT22;16814;52.118;11.436;2022-10-16T12:49:57;19.20;99.90
29571;DHT22;16814;52.118;11.436;2022-10-16T12:54:59;19.30;99.90
29571;DHT22;16814;52.118;11.436;2022-10-16T13:00:50;19.30;99.90
29571;DHT22;16814;52.118;11.436;2022-10-16T13:11:57;19.30;99.90
29571;DHT22;16814;52.118;11.436;2022-10-16T13:20:16;19.40;99.90
29571;DHT22;16814;52.118;11.436;2022-10-16T13:22:55;19.30;99.90
29571;DHT22;16814;52.118;11.436;2022-10-16T13:25:47;19.30;99.90
29571;DHT22;16814;52.118;11.436;2022-10-16T13:28:17;19.20;99.90
29571;DHT22;16814;52.118;11.436;2022-10-16T13:30:51;19.20;99.90
29571;DHT22;16814;52.118;11.436;2022-10-16T13:33:24;19.20;99.90
29571;DHT22;16814;52.118;11.436;2022-10-16T13:35:54;19.20;99.90
29571;DHT22;16814;52.118;11.436;2022-10-16T13:38:22;19.30;99.90
29571;DHT22;16814;52.118;11.436;2022-10-16T13:40:57;19.30;99.90
29571;DHT22;16814;52.118;11.436;2022-10-16T13:43:39;19.30;99.90
29571;DHT22;16814;52.118;11.436;2022-10-16T13:46:25;19.30;99.90
29571;DHT22;16814;52.118;11.436;2022-10-16T13:49:05;19.30;99.90
29571;DHT22;16814;52.118;11.436;2022-10-16T13:51:36;19.30;99.90
29571;DHT22;16814;52.118;11.436;2022-10-16T13:54:02;19.20;99.90
29571;DHT22;16814;52.118;11.436;2022-10-16T13:56:30;19.30;99.90
29571;DHT22;16814;52.118;11.436;2022-10-16T13:59:20;19.30;99.90
29571;DHT22;16814;52.118;11.436;2022-10-16T14:01:47;19.40;99.90
29571;DHT22;16814;52.118;11.436;2022-10-16T14:04:13;19.40;99.90
29571;DHT22;16814;52.118;11.436;2022-10-16T14:06:45;19.30;99.90
29571;DHT22;16814;52.118;11.436;2022-10-16T14:09:23;19.40;99.90
29571;DHT22;16814;52.118;11.436;2022-10-16T14:11:52;19.40;99.90
29571;DHT22;16814;52.118;11.436;2022-10-16T14:14:19;19.30;99.90
29571;DHT22;16814;52.118;11.436;2022-10-16T14:16:45;19.30;99.90
29571;DHT22;16814;52.118;11.436;2022-10-16T14:19:24;19.30;99.90
29571;DHT22;16814;52.118;11.436;2022-10-16T14:21:51;19.30;99.90
29571;DHT22;16814;52.118;11.436;2022-10-16T14:24:35;19.30;99.90
29571;DHT22;16814;52.118;11.436;2022-10-16T14:27:01;19.40;99.90
29571;DHT22;16814;52.118;11.436;2022-10-16T14:29:29;19.50;99.90
29571;DHT22;16814;52.118;11.436;2022-10-16T14:31:59;19.20;99.90
29571;DHT22;16814;52.118;11.436;2022-10-16T14:34:38;19.20;99.90
29571;DHT22;16814;52.118;11.436;2022-10-16T14:37:27;19.20;99.90
29571;DHT22;16814;52.118;11.436;2022-10-16T14:39:53;19.20;99.90
29571;DHT22;16814;52.118;11.436;2022-10-16T14:42:20;19.10;99.90
29571;DHT22;16814;52.118;11.436;2022-10-16T14:44:50;19.10;99.90
29571;DHT22;16814;52.118;11.436;2022-10-16T14:47:19;19.20;99.90
29571;DHT22;16814;52.118;11.436;2022-10-16T14:49:47;19.20;99.90
29571;DHT22;16814;52.118;11.436;2022-10-16T14:52:13;19.10;99.90
29571;DHT22;16814;52.118;11.436;2022-10-16T14:54:40;19.10;99.90
29571;DHT22;16814;52.118;11.436;2022-10-16T14:57:19;19.10;99.90
29571;DHT22;16814;52.118;11.436;2022-10-16T14:59:46;19.10;99.90
29571;DHT22;16814;52.118;11.436;2022-10-16T15:02:28;19.10;99.90
29571;DHT22;16814;52.118;11.436;2022-10-16T15:04:54;19.10;99.90
29571;DHT22;16814;52.118;11.436;2022-10-16T15:07:20;18.80;99.90
29571;DHT22;16814;52.118;11.436;2022-10-16T15:09:45;19.00;99.90
29571;DHT22;16814;52.118;11.436;2022-10-16T15:12:11;19.10;99.90
29571;DHT22;16814;52.118;11.436;2022-10-16T15:14:37;19.00;99.90
29571;DHT22;16814;52.118;11.436;2022-10-16T15:17:02;18.90;99.90
29571;DHT22;16814;52.118;11.436;2022-10-16T15:19:29;18.80;99.90
29571;DHT22;16814;52.118;11.436;2022-10-16T15:21:54;18.70;99.90
29571;DHT22;16814;52.118;11.436;2022-10-16T15:24:20;18.60;99.90
29571;DHT22;16814;52.118;11.436;2022-10-16T15:26:45;18.60;99.90
29571;DHT22;16814;52.118;11.436;2022-10-16T15:29:12;18.20;99.90
29571;DHT22;16814;52.118;11.436;2022-10-16T15:31:37;18.50;99.90
29571;DHT22;16814;52.118;11.436;2022-10-16T15:34:03;18.40;99.90
29571;DHT22;16814;52.118;11.436;2022-10-16T15:36:34;18.00;99.90
29571;DHT22;16814;52.118;11.436;2022-10-16T15:39:03;18.30;99.90
29571;DHT22;16814;52.118;11.436;2022-10-16T15:41:28;18.30;99.90
29571;DHT22;16814;52.118;11.436;2022-10-16T15:43:54;18.40;99.90
29571;DHT22;16814;52.118;11.436;2022-10-16T15:46:21;18.30;99.90
29571;DHT22;16814;52.118;11.436;2022-10-16T15:48:51;18.30;99.90
29571;DHT22;16814;52.118;11.436;2022-10-16T15:51:20;18.30;99.90
29571;DHT22;16814;52.118;11.436;2022-10-16T15:53:46;18.20;99.90
29571;DHT22;16814;52.118;11.436;2022-10-16T15:56:12;18.10;99.90
29571;DHT22;16814;52.118;11.436;2022-10-16T15:58:37;18.00;99.90
29571;DHT22;16814;52.118;11.436;2022-10-16T16:01:04;17.80;99.90
29571;DHT22;16814;52.118;11.436;2022-10-16T16:03:30;17.70;99.90
29571;DHT22;16814;52.118;11.436;2022-10-16T16:05:56;17.70;99.90
29571;DHT22;16814;52.118;11.436;2022-10-16T16:08:22;17.50;99.90
29571;DHT22;16814;52.118;11.436;2022-10-16T16:10:58;17.10;99.90
29571;DHT22;16814;52.118;11.436;2022-10-16T16:13:24;16.70;99.90
29571;DHT22;16814;52.118;11.436;2022-10-16T16:15:49;16.30;99.90
29571;DHT22;16814;52.118;11.436;2022-10-16T16:18:15;16.00;99.90
29571;DHT22;16814;52.118;11.436;2022-10-16T16:20:40;15.80;99.90
29571;DHT22;16814;52.118;11.436;2022-10-16T16:23:06;15.60;99.90
29571;DHT22;16814;52.118;11.436;2022-10-16T16:25:31;15.30;99.90
29571;DHT22;16814;52.118;11.436;2022-10-16T16:27:57;15.20;99.90
29571;DHT22;16814;52.118;11.436;2022-10-16T16:30:22;15.20;99.90
29571;DHT22;16814;52.118;11.436;2022-10-16T16:32:48;15.00;99.90
29571;DHT22;16814;52.118;11.436;2022-10-16T16:35:13;15.00;99.90
29571;DHT22;16814;52.118;11.436;2022-10-16T16:37:39;14.80;99.90
29571;DHT22;16814;52.118;11.436;2022-10-16T16:40:05;14.80;99.90
29571;DHT22;16814;52.118;11.436;2022-10-16T16:42:30;14.80;99.90
29571;DHT22;16814;52.118;11.436;2022-10-16T16:44:56;14.90;99.90
29571;DHT22;16814;52.118;11.436;2022-10-16T16:47:22;15.00;99.90
29571;DHT22;16814;52.118;11.436;2022-10-16T16:49:47;15.10;99.90
29571;DHT22;16814;52.118;11.436;2022-10-16T16:52:14;15.20;99.90
29571;DHT22;16814;52.118;11.436;2022-10-16T16:54:40;15.10;99.90
29571;DHT22;16814;52.118;11.436;2022-10-16T16:57:05;15.30;99.90
29571;DHT22;16814;52.118;11.436;2022-10-16T16:59:31;15.40;99.90
29571;DHT22;16814;52.118;11.436;2022-10-16T17:02:00;15.30;99.90
29571;DHT22;16814;52.118;11.436;2022-10-16T17:04:25;15.30;99.90
29571;DHT22;16814;52.118;11.436;2022-10-16T17:06:53;15.10;99.90